Time;durP1;ratioP1;P1;durP2;ratioP2;P2;SDS_P1;SDS_P2;PMS_P1;PMS_P2;Temp;Humidity;BMP_temperature;BMP_pressure;BME280_temperature;BME280_humidity;BME280_pressure;Samples;Min_cycle;Max_cycle;Signal;HPM_P1;HPM_P2
2023/02/01 00:02:20;;;;;;;15.65;4.65;;;;;;;;;;4996766;28;20035;-77
2023/02/01 00:04:47;;;;;;;22.45;5.13;;;;;;;;;;4989079;28;20027;-79
2023/02/01 00:07:13;;;;;;;16.90;4.55;;;;;;;;;;4993779;28;20037;-76
2023/02/01 00:09:39;;;;;;;20.60;6.05;;;;;;;;;;4999884;28;20022;-77
2023/02/01 00:12:05;;;;;;;12.65;5.25;;;;;;;;;;4997287;28;20026;-79
2023/02/01 00:14:38;;;;;;;14.63;4.80;;;;;;;;;;4999720;28;20038;-78
2023/02/01 00:17:04;;;;;;;16.00;4.47;;;;;;;;;;4995670;28;20078;-78
2023/02/01 00:19:30;;;;;;;15.07;5.00;;;;;;;;;;4996726;28;20050;-80
2023/02/01 00:21:57;;;;;;;15.50;4.60;;;;;;;;;;5002187;28;20546;-79
2023/02/01 00:24:23;;;;;;;17.88;4.90;;;;;;;;;;4990282;28;20030;-78
2023/02/01 00:26:49;;;;;;;15.68;4.70;;;;;;;;;;4990909;28;20026;-77
2023/02/01 00:29:17;;;;;;;15.63;5.30;;;;;;;;;;4988577;28;20027;-77
2023/02/01 00:31:43;;;;;;;20.45;4.95;;;;;;;;;;4998864;28;20031;-78
2023/02/01 00:34:12;;;;;;;14.00;4.38;;;;;;;;;;4990879;28;20024;-77
2023/02/01 00:36:38;;;;;;;19.98;4.70;;;;;;;;;;4999933;28;20113;-78
2023/02/01 00:39:04;;;;;;;12.27;3.83;;;;;;;;;;4997785;28;20045;-77
2023/02/01 00:41:30;;;;;;;13.45;4.70;;;;;;;;;;4999923;28;20429;-79
2023/02/01 00:43:59;;;;;;;10.32;3.85;;;;;;;;;;5002619;28;20019;-78
2023/02/01 00:46:25;;;;;;;12.23;4.50;;;;;;;;;;4993360;28;20031;-77
2023/02/01 00:48:51;;;;;;;18.52;4.53;;;;;;;;;;4999722;28;20419;-78
2023/02/01 00:51:20;;;;;;;11.05;4.72;;;;;;;;;;5002672;28;20053;-76
2023/02/01 00:53:47;;;;;;;15.77;6.88;;;;;;;;;;5001974;28;20019;-77
2023/02/01 00:56:13;;;;;;;11.90;3.55;;;;;;;;;;5000144;28;20026;-75
2023/02/01 00:58:39;;;;;;;16.90;4.57;;;;;;;;;;5001087;28;20023;-77
2023/02/01 01:01:07;;;;;;;10.43;4.22;;;;;;;;;;5002829;28;20026;-76
2023/02/01 01:03:34;;;;;;;12.93;4.32;;;;;;;;;;5005168;28;20037;-77
2023/02/01 01:06:02;;;;;;;8.02;4.07;;;;;;;;;;5003815;28;20090;-76
2023/02/01 01:08:28;;;;;;;11.98;4.70;;;;;;;;;;4998788;28;20041;-75
2023/02/01 01:10:54;;;;;;;11.90;5.78;;;;;;;;;;5001336;28;20035;-77
2023/02/01 01:13:21;;;;;;;32.70;9.55;;;;;;;;;;5000830;28;20406;-76
2023/02/01 01:15:47;;;;;;;14.63;5.57;;;;;;;;;;5011015;28;20054;-78
2023/02/01 01:18:16;;;;;;;15.23;5.68;;;;;;;;;;5001974;28;20031;-79
2023/02/01 01:20:42;;;;;;;12.77;3.78;;;;;;;;;;4997832;28;20019;-79
2023/02/01 01:23:09;;;;;;;7.82;4.47;;;;;;;;;;4993152;28;20030;-77
2023/02/01 01:25:40;;;;;;;10.20;4.45;;;;;;;;;;5001350;28;20030;-77
2023/02/01 01:28:07;;;;;;;11.02;4.40;;;;;;;;;;4997867;28;20027;-80
2023/02/01 01:30:37;;;;;;;13.48;5.05;;;;;;;;;;5001972;28;20081;-78
2023/02/01 01:33:03;;;;;;;15.07;4.35;;;;;;;;;;4999308;28;20034;-78
2023/02/01 01:35:33;;;;;;;12.57;5.13;;;;;;;;;;4986856;28;20023;-76
2023/02/01 01:38:00;;;;;;;16.48;5.45;;;;;;;;;;4997666;28;20030;-76
2023/02/01 01:40:29;;;;;;;20.35;5.85;;;;;;;;;;4993982;28;20077;-78
2023/02/01 01:42:56;;;;;;;26.70;7.50;;;;;;;;;;4996798;28;20030;-76
2023/02/01 01:45:27;;;;;;;19.00;5.63;;;;;;;;;;4996737;28;20069;-77
2023/02/01 01:48:13;;;;;;;12.90;5.20;;;;;;;;;;4994357;28;20034;-78
2023/02/01 01:50:48;;;;;;;27.48;9.55;;;;;;;;;;4996773;28;20138;-78
2023/02/01 01:53:14;;;;;;;15.50;5.28;;;;;;;;;;4993287;28;20034;-76
2023/02/01 01:55:43;;;;;;;23.70;6.35;;;;;;;;;;5000270;28;20043;-77
2023/02/01 01:58:11;;;;;;;16.60;5.13;;;;;;;;;;5006929;28;20046;-76
2023/02/01 02:00:37;;;;;;;17.13;5.43;;;;;;;;;;5003845;28;20034;-76
2023/02/01 02:03:11;;;;;;;13.27;5.78;;;;;;;;;;5003005;28;20121;-78
2023/02/01 02:05:38;;;;;;;22.38;7.75;;;;;;;;;;5003634;28;20542;-76
2023/02/01 02:08:04;;;;;;;14.93;5.15;;;;;;;;;;5004507;28;20091;-78
2023/02/01 02:13:17;;;;;;;15.25;4.68;;;;;;;;;;5001079;28;20073;-78
2023/02/01 02:15:48;;;;;;;19.35;7.75;;;;;;;;;;5004235;28;20033;-77
2023/02/01 02:18:26;;;;;;;12.55;5.10;;;;;;;;;;5002913;28;20206;-78
2023/02/01 02:21:07;;;;;;;12.05;4.40;;;;;;;;;;5002467;28;20037;-79
2023/02/01 02:24:03;;;;;;;18.58;4.85;;;;;;;;;;4997843;28;20481;-77
2023/02/01 02:26:29;;;;;;;15.50;4.90;;;;;;;;;;5000556;28;20050;-76
2023/02/01 02:29:05;;;;;;;15.02;4.90;;;;;;;;;;5005798;28;20026;-75
2023/02/01 02:31:34;;;;;;;9.73;4.05;;;;;;;;;;5000483;28;20034;-76
2023/02/01 02:34:26;;;;;;;15.63;4.45;;;;;;;;;;4998862;28;20568;-78
2023/02/01 02:37:13;;;;;;;16.70;4.82;;;;;;;;;;4990385;28;20031;-79
2023/02/01 02:39:53;;;;;;;15.88;4.20;;;;;;;;;;5000414;28;20026;-77
2023/02/01 02:48:05;;;;;;;12.77;4.18;;;;;;;;;;5004501;28;20060;-75
2023/02/01 03:10:04;;;;;;;12.32;4.00;;;;;;;;;;5843971;23;20129;-76
2023/02/01 03:15:26;;;;;;;12.48;4.03;;;;;;;;;;5039268;28;20029;-77
2023/02/01 03:21:34;;;;;;;15.00;5.25;;;;;;;;;;5044984;28;20040;-76
2023/02/01 03:28:06;;;;;;;16.05;4.00;;;;;;;;;;5019396;28;20068;-79
2023/02/01 03:34:16;;;;;;;13.20;4.38;;;;;;;;;;4945108;29;20090;-76
2023/02/01 03:37:07;;;;;;;17.05;4.40;;;;;;;;;;4932365;29;20447;-76
2023/02/01 03:40:08;;;;;;;12.98;4.22;;;;;;;;;;4980695;28;20465;-77
2023/02/01 03:43:08;;;;;;;14.25;3.55;;;;;;;;;;4979338;28;20038;-78
2023/02/01 03:46:05;;;;;;;13.50;3.90;;;;;;;;;;4945330;29;20047;-77
2023/02/01 03:48:53;;;;;;;15.18;3.92;;;;;;;;;;4965307;28;20032;-77
2023/02/01 03:52:03;;;;;;;10.15;3.47;;;;;;;;;;5029159;28;20017;-75
2023/02/01 03:55:23;;;;;;;11.73;4.05;;;;;;;;;;5041375;28;20061;-77
2023/02/01 03:58:26;;;;;;;15.82;4.45;;;;;;;;;;5048956;28;20093;-78
2023/02/01 04:01:29;;;;;;;11.97;4.20;;;;;;;;;;5040329;28;20048;-76
2023/02/01 04:04:26;;;;;;;10.98;3.40;;;;;;;;;;5042905;28;20037;-77
2023/02/01 04:10:37;;;;;;;13.70;3.80;;;;;;;;;;5035603;28;20080;-76
2023/02/01 04:13:33;;;;;;;12.73;4.47;;;;;;;;;;5042749;28;20041;-76
2023/02/01 04:16:14;;;;;;;14.30;4.72;;;;;;;;;;5039378;28;20469;-77
2023/02/01 04:19:06;;;;;;;13.98;3.45;;;;;;;;;;5042841;28;20022;-76
2023/02/01 04:21:38;;;;;;;;;;;;;;;;;;5046512;28;20025;-77
2023/02/01 04:24:12;;;;;;;14.02;4.72;;;;;;;;;;5051777;28;19908;-77
2023/02/01 04:26:44;;;;;;;13.50;3.97;;;;;;;;;;5027433;28;20045;-78
2023/02/01 04:29:32;;;;;;;17.50;4.70;;;;;;;;;;5061107;28;20029;-77
2023/02/01 04:32:38;;;;;;;21.35;5.65;;;;;;;;;;5049679;28;20029;-78
2023/02/01 04:35:38;;;;;;;13.48;3.92;;;;;;;;;;4951627;29;20034;-76
2023/02/01 04:38:20;;;;;;;12.73;4.30;;;;;;;;;;4955852;29;20098;-76
2023/02/01 04:41:28;;;;;;;13.80;4.95;;;;;;;;;;4954042;29;20031;-77
2023/02/01 04:44:23;;;;;;;13.57;4.20;;;;;;;;;;4999451;28;20056;-78
2023/02/01 04:47:00;;;;;;;17.05;4.40;;;;;;;;;;5044376;28;20040;-76
2023/02/01 04:49:48;;;;;;;19.27;3.97;;;;;;;;;;5042552;28;20144;-76
2023/02/01 04:52:35;;;;;;;13.60;4.25;;;;;;;;;;5036602;28;20372;-78
2023/02/01 04:55:54;;;;;;;13.00;3.40;;;;;;;;;;5045568;28;20026;-77
2023/02/01 04:58:42;;;;;;;11.15;3.28;;;;;;;;;;5041957;28;20263;-78
2023/02/01 05:01:21;;;;;;;19.52;3.88;;;;;;;;;;5046652;28;20032;-78
2023/02/01 05:04:09;;;;;;;11.25;3.78;;;;;;;;;;5034592;28;20029;-77
2023/02/01 05:06:38;;;;;;;11.25;4.55;;;;;;;;;;5033127;28;20472;-77
2023/02/01 05:09:24;;;;;;;15.63;4.40;;;;;;;;;;5030555;28;20447;-78
2023/02/01 05:15:15;;;;;;;20.55;5.05;;;;;;;;;;5019120;28;20057;-76
2023/02/01 05:18:00;;;;;;;20.20;3.92;;;;;;;;;;5040414;28;20049;-76
2023/02/01 05:21:04;;;;;;;16.13;3.80;;;;;;;;;;5038726;28;20029;-76
2023/02/01 05:26:39;;;;;;;21.95;5.03;;;;;;;;;;5034013;28;20057;-77
2023/02/01 05:29:16;;;;;;;22.67;5.40;;;;;;;;;;5027108;28;20026;-77
2023/02/01 05:32:14;;;;;;;17.15;4.53;;;;;;;;;;5044275;28;20028;-76
2023/02/01 05:35:25;;;;;;;12.05;3.72;;;;;;;;;;4976195;28;20058;-78
2023/02/01 05:38:02;;;;;;;8.98;3.92;;;;;;;;;;5016509;28;20037;-76
2023/02/01 05:40:40;;;;;;;13.70;4.97;;;;;;;;;;5010065;28;20041;-77
2023/02/01 05:43:37;;;;;;;9.88;4.93;;;;;;;;;;5019953;28;20146;-78
2023/02/01 05:46:41;;;;;;;14.57;4.90;;;;;;;;;;5031454;28;20089;-78
2023/02/01 05:49:35;;;;;;;18.45;5.47;;;;;;;;;;5011779;28;20429;-77
2023/02/01 05:52:19;;;;;;;12.48;3.63;;;;;;;;;;5026648;28;20049;-78
2023/02/01 05:54:59;;;;;;;;;;;;;;;;;;;;;
2023/02/01 05:57:40;;;;;;;11.50;4.10;;;;;;;;;;4923133;29;20095;-78
2023/02/01 06:00:35;;;;;;;19.42;4.90;;;;;;;;;;4990858;28;20027;-76
2023/02/01 06:03:14;;;;;;;15.35;3.80;;;;;;;;;;4985579;28;20031;-79
2023/02/01 06:05:46;;;;;;;15.57;4.18;;;;;;;;;;5010693;28;20061;-76
2023/02/01 06:08:47;;;;;;;18.55;3.85;;;;;;;;;;5004079;28;20057;-77
2023/02/01 06:11:48;;;;;;;20.88;4.38;;;;;;;;;;5011654;28;20038;-77
2023/02/01 06:21:25;;;;;;;11.48;5.05;;;;;;;;;;4992337;28;20048;-77
2023/02/01 06:23:54;;;;;;;12.73;3.47;;;;;;;;;;4988338;28;20103;-76
2023/02/01 06:26:29;;;;;;;9.60;3.22;;;;;;;;;;4993298;28;20023;-77
2023/02/01 06:28:56;;;;;;;14.90;3.40;;;;;;;;;;4990919;28;20047;-78
2023/02/01 06:31:25;;;;;;;21.55;4.53;;;;;;;;;;4989589;28;20055;-77
2023/02/01 06:33:51;;;;;;;12.70;4.18;;;;;;;;;;4992137;28;20038;-79
2023/02/01 06:36:20;;;;;;;16.20;4.43;;;;;;;;;;4995238;28;20048;-78
2023/02/01 06:38:46;;;;;;;15.80;3.35;;;;;;;;;;5016266;28;20038;-78
2023/02/01 06:41:13;;;;;;;16.10;3.92;;;;;;;;;;5012704;28;20038;-78
2023/02/01 06:43:39;;;;;;;19.08;5.57;;;;;;;;;;5026331;28;20030;-78
2023/02/01 06:46:08;;;;;;;17.70;4.15;;;;;;;;;;5035235;28;20046;-79
2023/02/01 06:48:34;;;;;;;24.35;4.22;;;;;;;;;;5017816;28;20064;-78
2023/02/01 06:51:01;;;;;;;11.88;3.53;;;;;;;;;;5034858;28;20033;-78
2023/02/01 06:53:27;;;;;;;14.32;3.95;;;;;;;;;;5035256;28;20037;-78
2023/02/01 06:55:56;;;;;;;11.23;4.30;;;;;;;;;;5017928;28;20083;-78
2023/02/01 06:58:46;;;;;;;17.77;3.97;;;;;;;;;;5018921;28;20089;-78
2023/02/01 07:01:12;;;;;;;22.95;4.80;;;;;;;;;;5014199;28;20042;-77
2023/02/01 07:03:46;;;;;;;22.90;4.82;;;;;;;;;;5018231;28;20025;-76
2023/02/01 07:06:12;;;;;;;14.85;4.57;;;;;;;;;;5030527;28;20054;-79
2023/02/01 07:08:38;;;;;;;16.63;3.80;;;;;;;;;;5029721;28;20030;-77
2023/02/01 07:11:05;;;;;;;15.68;4.00;;;;;;;;;;5031711;28;20135;-77
2023/02/01 07:13:32;;;;;;;13.20;4.88;;;;;;;;;;5030422;28;20030;-78
2023/02/01 07:15:59;;;;;;;12.80;3.70;;;;;;;;;;5030447;28;20028;-79
2023/02/01 07:18:25;;;;;;;13.80;5.10;;;;;;;;;;5030969;28;20041;-79
2023/02/01 07:20:51;;;;;;;12.60;3.60;;;;;;;;;;5029828;28;20084;-77
2023/02/01 07:23:18;;;;;;;15.63;4.85;;;;;;;;;;5015303;28;20060;-80
2023/02/01 07:25:44;;;;;;;17.38;4.22;;;;;;;;;;5033801;28;20021;-78
2023/02/01 07:46:24;;;;;;;15.65;4.22;;;;;;;;;;5804561;23;20084;-79
2023/02/01 07:48:56;;;;;;;20.83;4.03;;;;;;;;;;5031062;28;20029;-78
2023/02/01 07:51:25;;;;;;;13.07;3.65;;;;;;;;;;5012077;28;20023;-76
2023/02/01 07:53:51;;;;;;;19.15;5.38;;;;;;;;;;5010113;28;20034;-78
2023/02/01 07:56:18;;;;;;;16.75;4.40;;;;;;;;;;4992464;28;20022;-78
2023/02/01 07:58:48;;;;;;;16.33;5.82;;;;;;;;;;5026156;28;20041;-78
2023/02/01 08:01:21;;;;;;;16.33;4.82;;;;;;;;;;5011026;28;20093;-78
2023/02/01 08:03:47;;;;;;;21.02;3.95;;;;;;;;;;5029041;28;20030;-78
2023/02/01 08:06:14;;;;;;;12.48;3.97;;;;;;;;;;5028895;28;20064;-78
2023/02/01 08:08:40;;;;;;;17.92;4.22;;;;;;;;;;5010455;28;20472;-78
2023/02/01 08:11:07;;;;;;;16.58;4.03;;;;;;;;;;5028236;28;20056;-78
2023/02/01 08:13:36;;;;;;;17.88;4.63;;;;;;;;;;5028795;28;20022;-78
2023/02/01 08:16:04;;;;;;;14.07;3.63;;;;;;;;;;5028793;28;20041;-78
2023/02/01 08:18:34;;;;;;;16.40;4.43;;;;;;;;;;5011478;28;20018;-78
2023/02/01 08:21:04;;;;;;;18.33;4.28;;;;;;;;;;5028352;28;20022;-77
2023/02/01 08:23:30;;;;;;;12.90;3.92;;;;;;;;;;5027293;28;20049;-78
2023/02/01 08:26:04;;;;;;;17.25;4.07;;;;;;;;;;5009930;28;20052;-78
2023/02/01 08:28:30;;;;;;;14.07;5.00;;;;;;;;;;5010075;28;20059;-79
2023/02/01 08:30:57;;;;;;;16.60;3.90;;;;;;;;;;5010004;28;20034;-78
2023/02/01 08:33:23;;;;;;;11.13;4.88;;;;;;;;;;5027122;28;20026;-79
2023/02/01 08:35:49;;;;;;;30.15;5.70;;;;;;;;;;5009595;28;20046;-78
2023/02/01 08:38:22;;;;;;;17.60;4.85;;;;;;;;;;5009359;28;20026;-77
2023/02/01 08:40:48;;;;;;;15.63;4.07;;;;;;;;;;5009165;28;20067;-77
2023/02/01 08:43:14;;;;;;;15.73;3.83;;;;;;;;;;5026729;28;20036;-78
2023/02/01 08:45:41;;;;;;;12.93;4.28;;;;;;;;;;5010142;28;20037;-78
2023/02/01 08:48:07;;;;;;;25.38;4.97;;;;;;;;;;5008973;28;20048;-78
2023/02/01 08:50:33;;;;;;;24.00;5.65;;;;;;;;;;5028262;28;20037;-77
2023/02/01 08:52:59;;;;;;;19.80;4.53;;;;;;;;;;5010666;28;20052;-78
2023/02/01 09:05:48;;;;;;;14.15;3.80;;;;;;;;;;5464796;23;20050;-78
2023/02/01 09:08:19;;;;;;;18.63;4.43;;;;;;;;;;5027185;28;20032;-78
2023/02/01 09:10:48;;;;;;;21.00;4.78;;;;;;;;;;5032025;28;20022;-78
2023/02/01 09:19:40;;;;;;;15.10;4.25;;;;;;;;;;5030568;28;20037;-80
2023/02/01 09:25:45;;;;;;;16.80;4.78;;;;;;;;;;5036561;28;20025;-79
2023/02/01 09:29:09;;;;;;;18.63;4.45;;;;;;;;;;5016982;28;20018;-81
2023/02/01 09:38:05;;;;;;;19.65;5.43;;;;;;;;;;5009459;28;20034;-78
2023/02/01 09:53:45;;;;;;;17.60;4.72;;;;;;;;;;4877894;29;20045;-78
2023/02/01 10:19:16;;;;;;;9.70;4.75;;;;;;;;;;4870608;29;20117;-79
2023/02/01 10:21:45;;;;;;;15.15;4.20;;;;;;;;;;4903094;29;20056;-79
2023/02/01 10:24:18;;;;;;;13.35;3.85;;;;;;;;;;4931083;29;20092;-76
2023/02/01 10:26:55;;;;;;;10.10;4.57;;;;;;;;;;4972353;28;20026;-78
2023/02/01 10:29:31;;;;;;;16.45;6.00;;;;;;;;;;5031163;28;20029;-79
2023/02/01 10:32:00;;;;;;;18.17;4.50;;;;;;;;;;5029140;28;20022;-77
2023/02/01 10:34:27;;;;;;;18.73;5.63;;;;;;;;;;5029220;28;20022;-78
2023/02/01 10:37:00;;;;;;;20.27;4.53;;;;;;;;;;5028914;28;20022;-77
2023/02/01 10:39:26;;;;;;;12.40;4.25;;;;;;;;;;5011974;28;20026;-78
2023/02/01 10:41:52;;;;;;;15.77;4.03;;;;;;;;;;5016622;28;20091;-79
2023/02/01 10:44:24;;;;;;;19.20;6.18;;;;;;;;;;5012916;28;20057;-78
2023/02/01 10:46:51;;;;;;;13.50;4.00;;;;;;;;;;5023083;28;20026;-78
2023/02/01 10:49:18;;;;;;;13.88;3.78;;;;;;;;;;5028495;28;20021;-78
2023/02/01 10:51:54;;;;;;;14.35;4.82;;;;;;;;;;5011214;28;20028;-78
2023/02/01 10:54:21;;;;;;;14.05;4.07;;;;;;;;;;5011418;28;20104;-81
2023/02/01 10:56:48;;;;;;;16.77;4.60;;;;;;;;;;5015523;28;20046;-78
2023/02/01 10:59:18;;;;;;;12.07;4.30;;;;;;;;;;5028695;28;20037;-77
2023/02/01 11:01:46;;;;;;;15.05;3.92;;;;;;;;;;5012143;28;20022;-78
2023/02/01 11:27:35;;;;;;;16.08;4.57;;;;;;;;;;5389282;23;20270;-77
2023/02/01 11:48:16;;;;;;;19.35;4.70;;;;;;;;;;5137051;23;19925;-78
2023/02/01 11:51:01;;;;;;;14.38;5.07;;;;;;;;;;5027776;28;20040;-78
2023/02/01 11:53:49;;;;;;;50.92;19.80;;;;;;;;;;5028609;28;20026;-80
2023/02/01 11:56:22;;;;;;;11.57;4.78;;;;;;;;;;5011622;28;20022;-81
2023/02/01 11:58:57;;;;;;;15.50;5.00;;;;;;;;;;5029050;28;20086;-79
2023/02/01 12:01:23;;;;;;;;;;;;;;;;;;5028577;28;20025;-79
2023/02/01 12:03:49;;;;;;;;;;;;;;;;;;5027687;28;19920;-78
2023/02/01 12:06:15;;;;;;;;;;;;;;;;;;5028074;28;19905;-78
2023/02/01 12:08:41;;;;;;;;;;;;;;;;;;5030223;28;19906;-78
2023/02/01 12:11:07;;;;;;;10.30;3.78;;;;;;;;;;5009822;28;20000;-78
2023/02/01 12:13:38;;;;;;;12.68;3.70;;;;;;;;;;5009737;28;20040;-78
2023/02/01 12:16:16;;;;;;;15.65;5.13;;;;;;;;;;5028057;28;20037;-78
2023/02/01 12:18:50;;;;;;;11.90;3.83;;;;;;;;;;5010945;28;20042;-78
2023/02/01 12:21:25;;;;;;;17.35;4.00;;;;;;;;;;4990454;28;20030;-78
2023/02/01 12:24:14;;;;;;;17.42;4.20;;;;;;;;;;5027164;28;20046;-78
2023/02/01 12:27:01;;;;;;;9.27;3.72;;;;;;;;;;5004093;28;20061;-79
2023/02/01 12:29:48;;;;;;;12.63;3.83;;;;;;;;;;5011287;28;20026;-79
2023/02/01 12:32:47;;;;;;;16.15;3.92;;;;;;;;;;5009296;28;20018;-78
2023/02/01 12:35:13;;;;;;;14.73;3.97;;;;;;;;;;5002188;28;20061;-79
2023/02/01 12:38:02;;;;;;;15.60;5.13;;;;;;;;;;5013303;28;20022;-78
2023/02/01 12:40:34;;;;;;;13.93;3.42;;;;;;;;;;5014853;28;20010;-79
2023/02/01 12:43:08;;;;;;;13.13;4.88;;;;;;;;;;5001587;28;20057;-78
2023/02/01 12:45:47;;;;;;;11.18;3.92;;;;;;;;;;5027596;28;20049;-79
2023/02/01 12:48:25;;;;;;;11.68;4.68;;;;;;;;;;5027393;28;20132;-79
2023/02/01 13:23:27;;;;;;;12.93;4.13;;;;;;;;;;5475641;23;20067;-79
2023/02/01 13:25:54;;;;;;;10.20;3.40;;;;;;;;;;4951160;29;20031;-81
2023/02/01 13:28:26;;;;;;;11.35;3.45;;;;;;;;;;4971368;28;20039;-81
2023/02/01 13:31:05;;;;;;;12.70;3.85;;;;;;;;;;4966538;29;20027;-79
2023/02/01 13:33:31;;;;;;;11.70;4.88;;;;;;;;;;4949636;29;20086;-79
2023/02/01 13:36:03;;;;;;;6.97;3.60;;;;;;;;;;4966689;28;20038;-81
2023/02/01 13:38:39;;;;;;;10.52;2.38;;;;;;;;;;4967082;29;20024;-78
2023/02/01 13:41:26;;;;;;;7.65;2.40;;;;;;;;;;4968623;28;20060;-79
2023/02/01 13:43:54;;;;;;;8.27;3.00;;;;;;;;;;4966419;29;20042;-79
2023/02/01 13:46:20;;;;;;;14.80;3.08;;;;;;;;;;4948758;29;20023;-79
2023/02/01 13:48:46;;;;;;;12.23;3.22;;;;;;;;;;4943860;29;20043;-80
2023/02/01 13:51:13;;;;;;;5.85;2.45;;;;;;;;;;4948744;29;20631;-78
2023/02/01 13:56:19;;;;;;;10.32;2.65;;;;;;;;;;5215922;23;20425;-78
2023/02/01 13:58:46;;;;;;;7.18;2.78;;;;;;;;;;4953751;29;20070;-77
2023/02/01 14:01:21;;;;;;;8.20;2.28;;;;;;;;;;4970479;28;20054;-78
2023/02/01 14:03:57;;;;;;;8.68;2.70;;;;;;;;;;4972098;29;20023;-80
2023/02/01 14:06:26;;;;;;;12.57;3.00;;;;;;;;;;4956588;29;20031;-78
2023/02/01 14:09:13;;;;;;;9.20;3.40;;;;;;;;;;4954664;29;20092;-77
2023/02/01 14:11:42;;;;;;;5.70;3.33;;;;;;;;;;4969471;29;20027;-78
2023/02/01 14:14:14;;;;;;;10.32;3.10;;;;;;;;;;4970498;29;20057;-78
2023/02/01 14:16:40;;;;;;;10.50;3.00;;;;;;;;;;4977168;28;20046;-78
2023/02/01 14:19:19;;;;;;;7.28;3.10;;;;;;;;;;4971041;28;20471;-78
2023/02/01 14:21:53;;;;;;;9.95;4.18;;;;;;;;;;4971947;29;20027;-77
2023/02/01 14:24:22;;;;;;;8.48;3.22;;;;;;;;;;4963915;29;20083;-79
2023/02/01 14:26:53;;;;;;;13.75;3.40;;;;;;;;;;4959145;29;20055;-80
2023/02/01 14:29:40;;;;;;;9.30;2.53;;;;;;;;;;4968623;28;20023;-79
2023/02/01 14:32:06;;;;;;;6.53;3.17;;;;;;;;;;4947155;29;20031;-77
2023/02/01 14:34:36;;;;;;;9.93;3.10;;;;;;;;;;4967346;29;20019;-75
2023/02/01 14:37:07;;;;;;;14.25;4.18;;;;;;;;;;4968356;29;20074;-76
2023/02/01 14:39:36;;;;;;;8.50;2.90;;;;;;;;;;4952328;29;20031;-78
2023/02/01 14:42:04;;;;;;;8.88;5.28;;;;;;;;;;4969218;29;20027;-75
2023/02/01 14:44:32;;;;;;;8.60;3.60;;;;;;;;;;4967116;29;20050;-77
2023/02/01 14:47:07;;;;;;;12.15;5.03;;;;;;;;;;4968651;29;20023;-78
2023/02/01 14:49:35;;;;;;;12.65;4.90;;;;;;;;;;4951534;29;20046;-76
2023/02/01 14:52:03;;;;;;;10.18;4.65;;;;;;;;;;4969380;28;20030;-76
2023/02/01 14:54:29;;;;;;;11.65;5.00;;;;;;;;;;4968549;29;20047;-79
2023/02/01 14:56:56;;;;;;;11.25;4.07;;;;;;;;;;4963137;29;20034;-76
2023/02/01 14:59:24;;;;;;;9.73;4.85;;;;;;;;;;4967257;29;20019;-77
2023/02/01 15:01:53;;;;;;;11.65;5.78;;;;;;;;;;4959417;29;20023;-76
2023/02/01 15:04:22;;;;;;;20.27;10.07;;;;;;;;;;4967859;29;20039;-76
2023/02/01 15:06:54;;;;;;;17.02;7.80;;;;;;;;;;4964821;28;20549;-77
2023/02/01 15:09:22;;;;;;;14.38;5.10;;;;;;;;;;4961991;29;20042;-76
2023/02/01 15:11:56;;;;;;;16.73;8.80;;;;;;;;;;4932216;29;20426;-77
2023/02/01 15:14:22;;;;;;;14.43;6.72;;;;;;;;;;4959838;29;20081;-75
2023/02/01 15:16:53;;;;;;;12.13;4.43;;;;;;;;;;4965799;29;20042;-77
2023/02/01 15:19:21;;;;;;;13.40;4.95;;;;;;;;;;4965364;29;20090;-78
2023/02/01 15:21:52;;;;;;;12.27;6.63;;;;;;;;;;4947171;29;20371;-77
2023/02/01 15:24:26;;;;;;;6.88;3.53;;;;;;;;;;4968040;29;20019;-77
2023/02/01 15:26:53;;;;;;;11.65;4.15;;;;;;;;;;4970812;29;20082;-76
2023/02/01 15:29:21;;;;;;;6.90;3.50;;;;;;;;;;4968604;29;20022;-77
2023/02/01 15:31:48;;;;;;;9.02;4.15;;;;;;;;;;4967689;28;20028;-75
2023/02/01 15:34:15;;;;;;;14.15;5.75;;;;;;;;;;4968091;29;20383;-76
2023/02/01 15:37:05;;;;;;;15.45;6.68;;;;;;;;;;4968231;29;20035;-78
2023/02/01 15:40:08;;;;;;;15.18;4.97;;;;;;;;;;4951213;29;20036;-76
2023/02/01 15:42:35;;;;;;;18.00;6.00;;;;;;;;;;4968739;28;20473;-77
2023/02/01 15:45:01;;;;;;;9.40;4.40;;;;;;;;;;4969099;29;20027;-75
2023/02/01 15:47:32;;;;;;;10.07;3.70;;;;;;;;;;4932006;29;20027;-75
2023/02/01 15:50:00;;;;;;;16.27;6.65;;;;;;;;;;4931420;29;20062;-74
2023/02/01 15:52:30;;;;;;;9.77;2.58;;;;;;;;;;4987161;28;20042;-75
2023/02/01 15:54:58;;;;;;;9.27;3.53;;;;;;;;;;4977791;28;20055;-78
2023/02/01 15:57:32;;;;;;;8.88;2.90;;;;;;;;;;4962305;29;20027;-79
2023/02/01 16:00:01;;;;;;;7.72;4.22;;;;;;;;;;4967437;29;20047;-79
2023/02/01 16:02:51;;;;;;;9.63;5.03;;;;;;;;;;4967406;29;20023;-77
2023/02/01 16:05:32;;;;;;;9.07;3.33;;;;;;;;;;4953986;29;20023;-79
2023/02/01 16:08:13;;;;;;;12.13;5.05;;;;;;;;;;4956124;29;20019;-77
2023/02/01 16:10:41;;;;;;;15.20;7.22;;;;;;;;;;4966247;29;20114;-77
2023/02/01 16:13:07;;;;;;;8.38;3.63;;;;;;;;;;4957385;29;20028;-75
2023/02/01 16:15:33;;;;;;;12.48;4.18;;;;;;;;;;4966432;29;20030;-75
2023/02/01 16:18:00;;;;;;;14.77;7.20;;;;;;;;;;4948010;29;20031;-77
2023/02/01 16:20:26;;;;;;;8.75;3.72;;;;;;;;;;4952860;29;20024;-78
2023/02/01 16:22:52;;;;;;;12.50;7.38;;;;;;;;;;4946582;29;20058;-75
2023/02/01 16:25:18;;;;;;;13.52;5.63;;;;;;;;;;4966447;28;20046;-76
2023/02/01 16:27:44;;;;;;;15.48;7.95;;;;;;;;;;4964014;29;20042;-76
2023/02/01 16:30:11;;;;;;;10.75;4.60;;;;;;;;;;4961821;29;20168;-77
2023/02/01 16:32:38;;;;;;;9.43;5.32;;;;;;;;;;4968614;28;20497;-77
2023/02/01 16:35:05;;;;;;;10.23;4.03;;;;;;;;;;4967266;29;20030;-76
2023/02/01 16:37:33;;;;;;;11.85;4.22;;;;;;;;;;4965340;29;20032;-77
2023/02/01 16:39:59;;;;;;;11.98;6.57;;;;;;;;;;4965931;29;20256;-77
2023/02/01 16:42:25;;;;;;;10.60;4.72;;;;;;;;;;4963600;29;20053;-77
2023/02/01 16:44:51;;;;;;;8.27;3.60;;;;;;;;;;4944211;29;20038;-76
2023/02/01 16:47:18;;;;;;;11.85;3.90;;;;;;;;;;4960490;29;20031;-76
2023/02/01 16:49:44;;;;;;;13.93;3.47;;;;;;;;;;4965137;29;20027;-76
2023/02/01 16:52:15;;;;;;;13.43;4.40;;;;;;;;;;4960899;29;20074;-76
2023/02/01 16:54:41;;;;;;;26.50;4.82;;;;;;;;;;4967731;28;20024;-76
2023/02/01 16:57:11;;;;;;;12.38;4.10;;;;;;;;;;4965189;29;20033;-77
2023/02/01 16:59:37;;;;;;;9.35;4.03;;;;;;;;;;4968140;29;20239;-76
2023/02/01 17:02:03;;;;;;;8.15;5.45;;;;;;;;;;4956987;28;20027;-76
2023/02/01 17:04:29;;;;;;;10.93;3.67;;;;;;;;;;4985873;28;20027;-76
2023/02/01 17:06:55;;;;;;;14.00;5.75;;;;;;;;;;4975010;28;20027;-77
2023/02/01 17:09:31;;;;;;;12.75;4.43;;;;;;;;;;4967698;29;20027;-75
2023/02/01 17:15:01;;;;;;;11.43;5.90;;;;;;;;;;4947722;29;20027;-76
2023/02/01 17:17:31;;;;;;;10.98;5.93;;;;;;;;;;4947610;29;20019;-76
2023/02/01 17:19:57;;;;;;;12.10;5.32;;;;;;;;;;4957831;29;20046;-76
2023/02/01 17:22:23;;;;;;;14.40;6.47;;;;;;;;;;4967063;29;20038;-75
2023/02/01 17:24:50;;;;;;;14.40;6.05;;;;;;;;;;4962149;29;20051;-76
2023/02/01 17:27:16;;;;;;;10.68;6.00;;;;;;;;;;4951266;29;20023;-75
2023/02/01 17:29:44;;;;;;;9.98;5.30;;;;;;;;;;4967014;28;20027;-75
2023/02/01 17:32:21;;;;;;;10.85;5.47;;;;;;;;;;4969820;29;20023;-75
2023/02/01 17:34:47;;;;;;;14.20;9.18;;;;;;;;;;4963784;28;20067;-76
2023/02/01 17:37:26;;;;;;;9.23;4.43;;;;;;;;;;4962332;28;20039;-77
2023/02/01 17:39:55;;;;;;;12.15;6.07;;;;;;;;;;4964583;28;20026;-77
2023/02/01 17:42:21;;;;;;;13.68;3.72;;;;;;;;;;4947950;29;20497;-76
2023/02/01 17:44:48;;;;;;;29.10;20.90;;;;;;;;;;4951323;29;20113;-76
2023/02/01 17:47:14;;;;;;;90.32;50.53;;;;;;;;;;4950871;29;20027;-76
2023/02/01 17:49:40;;;;;;;80.05;35.70;;;;;;;;;;4962558;29;20031;-77
2023/02/01 17:52:06;;;;;;;143.65;76.18;;;;;;;;;;4971420;29;20073;-77
2023/02/01 17:54:32;;;;;;;126.65;67.05;;;;;;;;;;4969842;29;20031;-76
2023/02/01 17:57:02;;;;;;;101.43;59.53;;;;;;;;;;4969873;29;20027;-76
2023/02/01 17:59:28;;;;;;;92.20;51.25;;;;;;;;;;4970054;29;20027;-78
2023/02/01 18:01:59;;;;;;;32.53;20.15;;;;;;;;;;4965658;29;20023;-76
2023/02/01 18:04:25;;;;;;;27.48;18.23;;;;;;;;;;4962605;29;20023;-77
2023/02/01 18:06:51;;;;;;;18.95;9.18;;;;;;;;;;4970153;29;20058;-77
2023/02/01 18:09:17;;;;;;;18.77;6.50;;;;;;;;;;4970057;29;20023;-76
2023/02/01 18:11:43;;;;;;;13.43;6.72;;;;;;;;;;4965391;29;20031;-76
2023/02/01 18:14:12;;;;;;;19.33;7.35;;;;;;;;;;4951194;29;20024;-77
2023/02/01 18:16:38;;;;;;;11.02;6.20;;;;;;;;;;4950759;29;20020;-76
2023/02/01 18:19:04;;;;;;;16.17;5.63;;;;;;;;;;4951531;29;20028;-76
2023/02/01 18:21:44;;;;;;;19.77;6.82;;;;;;;;;;4966923;29;20030;-76
2023/02/01 18:24:14;;;;;;;11.70;5.50;;;;;;;;;;4946987;29;20035;-76
2023/02/01 18:26:40;;;;;;;16.92;9.10;;;;;;;;;;4950526;29;20087;-77
2023/02/01 18:29:06;;;;;;;20.52;9.50;;;;;;;;;;4969030;29;20042;-76
2023/02/01 18:31:34;;;;;;;23.27;11.75;;;;;;;;;;4969624;29;20023;-76
2023/02/01 18:34:00;;;;;;;34.72;19.00;;;;;;;;;;4969676;29;20038;-77
2023/02/01 18:36:27;;;;;;;41.70;22.52;;;;;;;;;;4969308;29;20426;-76
2023/02/01 18:38:56;;;;;;;26.60;16.25;;;;;;;;;;4970768;29;20028;-76
2023/02/01 18:41:22;;;;;;;20.85;7.78;;;;;;;;;;4944297;29;20047;-76
2023/02/01 18:43:49;;;;;;;23.83;12.13;;;;;;;;;;4932691;29;20467;-76
2023/02/01 18:46:15;;;;;;;16.10;7.63;;;;;;;;;;4932627;29;20028;-77
2023/02/01 18:48:42;;;;;;;13.82;6.50;;;;;;;;;;4949955;29;20034;-76